Aviation Digital Data Service (ADDS)

Output produced by METARs form (0034 UTC 27 May 2017)
found at http://www.aviationweather.gov/adds/metars/
 
KJFK 262339Z 2700/2806 29012KT P6SM SCT050 SCT100 
     FM270600 33007KT P6SM FEW100 
     FM271300 35005KT P6SM SCT050 
     FM271800 18010KT P6SM BKN040 
     FM280100 19005KT P6SM BKN020